createdAt,value
2019-05-29T00:00:42.702Z,0.00
2019-05-29T00:01:42.621Z,0.00
2019-05-29T00:02:42.559Z,0.00
2019-05-29T00:03:42.485Z,0.00
2019-05-29T00:04:42.410Z,0.00
2019-05-29T00:05:42.343Z,0.00
2019-05-29T00:06:42.290Z,0.00
2019-05-29T00:07:42.205Z,0.00
2019-05-29T00:08:42.135Z,0.00
2019-05-29T00:09:42.065Z,0.00
2019-05-29T00:10:41.998Z,0.00
2019-05-29T00:11:41.928Z,0.00
2019-05-29T00:12:41.856Z,0.00
2019-05-29T00:13:41.789Z,0.00
2019-05-29T00:14:41.725Z,0.00
2019-05-29T00:15:41.661Z,0.00
2019-05-29T00:16:41.574Z,0.00
2019-05-29T00:17:41.503Z,0.00
2019-05-29T00:18:41.435Z,0.00
2019-05-29T00:19:41.364Z,0.00
2019-05-29T00:20:41.295Z,0.00
2019-05-29T00:21:41.225Z,0.00
2019-05-29T00:22:41.161Z,0.00
2019-05-29T00:23:41.085Z,0.00
2019-05-29T00:24:41.014Z,0.00
2019-05-29T00:25:40.943Z,0.00
2019-05-29T00:26:40.876Z,0.00
2019-05-29T00:27:40.808Z,0.00
2019-05-29T00:28:40.737Z,0.00
2019-05-29T00:29:40.667Z,0.00
2019-05-29T00:30:40.601Z,0.00
2019-05-29T00:31:40.535Z,0.00
2019-05-29T00:32:40.455Z,0.00
2019-05-29T00:33:40.388Z,0.00
2019-05-29T00:34:40.314Z,0.00
2019-05-29T00:35:40.249Z,0.00
2019-05-29T00:36:40.172Z,0.00
2019-05-29T00:37:40.110Z,0.00
2019-05-29T00:38:40.042Z,0.00
2019-05-29T00:39:39.980Z,0.00
2019-05-29T00:40:39.894Z,0.00
2019-05-29T00:41:39.826Z,0.00
2019-05-29T00:42:39.821Z,0.00
2019-05-29T00:43:39.687Z,0.00
2019-05-29T00:44:39.620Z,0.00
2019-05-29T00:45:39.547Z,0.00
2019-05-29T00:46:39.473Z,0.00
2019-05-29T00:47:39.407Z,0.00
2019-05-29T00:48:39.333Z,0.00
2019-05-29T00:49:39.267Z,0.00
2019-05-29T00:50:39.194Z,0.00
2019-05-29T00:51:39.126Z,0.00
2019-05-29T00:52:39.051Z,0.00
2019-05-29T00:53:38.987Z,0.00
2019-05-29T00:54:38.926Z,0.00
2019-05-29T00:55:38.855Z,0.00
2019-05-29T00:56:38.778Z,0.00
2019-05-29T00:57:38.713Z,0.00
2019-05-29T00:58:41.400Z,0.00
2019-05-29T00:59:38.570Z,0.00
2019-05-29T01:00:38.492Z,0.00
2019-05-29T01:01:38.426Z,0.00
2019-05-29T01:02:38.351Z,0.00
2019-05-29T01:03:38.282Z,0.00
2019-05-29T01:04:38.206Z,0.00
2019-05-29T01:05:38.135Z,0.00
2019-05-29T01:06:38.072Z,0.00
2019-05-29T01:07:38.010Z,0.00
2019-05-29T01:08:37.926Z,0.00
2019-05-29T01:09:37.860Z,0.00
2019-05-29T01:10:37.791Z,0.00
2019-05-29T01:11:37.724Z,0.00
2019-05-29T01:12:37.647Z,0.00
2019-05-29T01:13:37.578Z,0.00
2019-05-29T01:14:49.605Z,0.00
2019-05-29T01:15:37.435Z,0.00
2019-05-29T01:16:37.365Z,0.00
2019-05-29T01:17:37.291Z,0.00
2019-05-29T01:18:37.239Z,0.00
2019-05-29T01:19:37.168Z,0.00
2019-05-29T01:20:37.085Z,0.00
2019-05-29T01:21:37.021Z,0.00
2019-05-29T01:22:36.939Z,0.00
2019-05-29T01:23:36.875Z,0.00
2019-05-29T01:24:36.800Z,0.00
2019-05-29T01:25:37.421Z,0.00
2019-05-29T01:26:36.657Z,0.00
2019-05-29T01:27:36.585Z,0.00
2019-05-29T01:28:36.517Z,0.00
2019-05-29T01:29:36.448Z,0.00
2019-05-29T01:30:36.379Z,0.00
2019-05-29T01:31:36.309Z,0.00
2019-05-29T01:32:36.236Z,0.00
2019-05-29T01:33:36.164Z,0.00
2019-05-29T01:34:36.093Z,0.00
2019-05-29T01:35:36.021Z,0.00
2019-05-29T01:36:35.954Z,0.00
2019-05-29T01:37:35.879Z,0.00
2019-05-29T01:38:35.810Z,0.00
2019-05-29T01:39:35.742Z,0.00
2019-05-29T01:40:35.668Z,0.00
2019-05-29T01:41:35.597Z,0.00
2019-05-29T01:42:35.528Z,0.00
2019-05-29T01:43:35.458Z,0.00
2019-05-29T01:44:35.386Z,0.00
2019-05-29T01:45:35.312Z,0.00
2019-05-29T01:46:35.243Z,0.00
2019-05-29T01:47:35.170Z,0.00
2019-05-29T01:48:35.103Z,0.00
2019-05-29T01:49:35.175Z,0.00
2019-05-29T01:50:34.962Z,0.00
2019-05-29T01:51:34.892Z,0.00
2019-05-29T01:52:34.823Z,0.00
2019-05-29T01:53:34.747Z,0.00
2019-05-29T01:54:34.679Z,0.00
2019-05-29T01:55:34.605Z,0.00
2019-05-29T01:56:34.534Z,0.00
2019-05-29T01:57:34.464Z,0.00
2019-05-29T01:58:34.393Z,0.00
2019-05-29T01:59:34.326Z,0.00
2019-05-29T02:00:34.252Z,0.00
2019-05-29T02:01:34.184Z,0.00
2019-05-29T02:02:34.129Z,0.00
2019-05-29T02:03:34.039Z,0.00
2019-05-29T02:04:33.969Z,0.00
2019-05-29T02:05:33.897Z,0.00
2019-05-29T02:06:33.827Z,0.00
2019-05-29T02:07:33.758Z,0.00
2019-05-29T02:08:33.686Z,0.00
2019-05-29T02:09:33.620Z,0.00
2019-05-29T02:10:33.581Z,0.00
2019-05-29T02:11:33.477Z,0.00
2019-05-29T02:12:33.409Z,0.00
2019-05-29T02:13:33.328Z,0.00
2019-05-29T02:14:33.326Z,0.00
2019-05-29T02:15:34.132Z,0.00
2019-05-29T02:16:33.118Z,0.00
2019-05-29T02:17:33.043Z,0.00
2019-05-29T02:18:32.976Z,0.00
2019-05-29T02:19:32.906Z,0.00
2019-05-29T02:20:32.854Z,0.00
2019-05-29T02:21:32.762Z,0.00
2019-05-29T02:22:32.694Z,0.00
2019-05-29T02:23:32.621Z,0.00
2019-05-29T02:24:32.550Z,0.00
2019-05-29T02:25:32.481Z,0.00
2019-05-29T02:26:32.411Z,0.00
2019-05-29T02:27:32.336Z,0.00
2019-05-29T02:28:32.265Z,0.00
2019-05-29T02:29:32.197Z,0.00
2019-05-29T02:30:32.127Z,0.00
2019-05-29T02:31:32.055Z,0.00
2019-05-29T02:32:31.987Z,0.00
2019-05-29T02:33:31.918Z,0.00
2019-05-29T02:34:31.843Z,0.00
2019-05-29T02:35:31.772Z,0.00
2019-05-29T02:36:31.698Z,0.00
2019-05-29T02:37:31.627Z,0.00
2019-05-29T02:38:31.560Z,0.00
2019-05-29T02:39:31.489Z,0.00
2019-05-29T02:40:31.443Z,0.00
2019-05-29T02:41:31.345Z,0.00
2019-05-29T02:42:31.278Z,0.00
2019-05-29T02:43:31.204Z,0.00
2019-05-29T02:44:31.130Z,0.00
2019-05-29T02:45:50.856Z,0.00
2019-05-29T02:46:30.995Z,0.00
2019-05-29T02:47:30.931Z,0.00
2019-05-29T02:48:31.808Z,0.00
2019-05-29T02:49:30.788Z,0.00
2019-05-29T02:50:31.249Z,0.00
2019-05-29T02:51:30.639Z,0.00
2019-05-29T02:52:30.845Z,0.00
2019-05-29T02:53:30.946Z,0.00
2019-05-29T02:54:32.182Z,0.00
2019-05-29T02:55:30.913Z,0.00
2019-05-29T02:56:31.285Z,0.00
2019-05-29T02:57:31.016Z,0.00
2019-05-29T02:58:31.625Z,0.00
2019-05-29T02:59:31.785Z,0.00
2019-05-29T03:00:31.389Z,0.00
2019-05-29T03:01:31.698Z,0.00
2019-05-29T03:02:30.552Z,0.00
2019-05-29T03:03:34.520Z,0.00
2019-05-29T03:04:30.244Z,0.00
2019-05-29T03:05:29.951Z,0.00
2019-05-29T03:06:30.253Z,0.00
2019-05-29T03:07:30.716Z,0.00
2019-05-29T03:08:31.792Z,0.00
2019-05-29T03:09:30.681Z,0.00
2019-05-29T03:10:30.807Z,0.00
2019-05-29T03:11:30.632Z,0.00
2019-05-29T03:12:29.487Z,0.00
2019-05-29T03:13:30.483Z,0.00
2019-05-29T03:14:29.656Z,0.00
2019-05-29T03:15:29.738Z,0.00
2019-05-29T03:16:31.899Z,0.00
2019-05-29T03:17:29.789Z,0.00
2019-05-29T03:18:30.227Z,0.00
2019-05-29T03:19:30.339Z,0.00
2019-05-29T03:20:30.266Z,0.00
2019-05-29T03:21:30.066Z,0.00
2019-05-29T03:22:29.235Z,0.00
2019-05-29T03:23:28.980Z,0.00
2019-05-29T03:24:28.635Z,0.00
2019-05-29T03:25:28.470Z,0.00
2019-05-29T03:26:30.363Z,0.00
2019-05-29T03:27:29.812Z,0.00
2019-05-29T03:28:29.799Z,0.00
2019-05-29T03:29:28.275Z,0.00
2019-05-29T03:30:31.836Z,0.00
2019-05-29T03:31:32.172Z,0.00
2019-05-29T03:32:30.454Z,0.00
2019-05-29T03:33:32.388Z,0.00
2019-05-29T03:34:32.065Z,0.00
2019-05-29T03:35:31.565Z,0.00
2019-05-29T03:36:31.296Z,0.00
2019-05-29T03:37:28.200Z,0.00
2019-05-29T03:38:28.342Z,0.00
2019-05-29T03:39:28.086Z,0.00
2019-05-29T03:40:28.841Z,0.00
2019-05-29T03:41:28.187Z,0.00
2019-05-29T03:42:28.282Z,0.00
2019-05-29T03:43:28.437Z,0.00
2019-05-29T03:44:28.561Z,0.00
2019-05-29T03:45:28.678Z,0.00
2019-05-29T03:46:36.742Z,0.00
2019-05-29T03:47:27.068Z,0.00
2019-05-29T03:48:27.800Z,0.00
2019-05-29T03:49:26.873Z,0.00
2019-05-29T03:50:28.869Z,0.00
2019-05-29T03:51:27.326Z,0.00
2019-05-29T03:52:26.899Z,0.00
2019-05-29T03:53:27.051Z,0.00
2019-05-29T03:54:26.585Z,0.00
2019-05-29T03:55:27.325Z,0.00
2019-05-29T03:56:26.465Z,0.00
2019-05-29T03:57:27.483Z,0.00
2019-05-29T03:58:26.372Z,0.00
2019-05-29T03:59:26.752Z,0.00
2019-05-29T04:00:29.914Z,0.00
2019-05-29T04:01:26.817Z,0.00
2019-05-29T04:02:26.709Z,0.00
2019-05-29T04:03:26.946Z,0.00
2019-05-29T04:04:26.920Z,0.00
2019-05-29T04:05:26.703Z,0.00
2019-05-29T04:06:26.882Z,0.00
2019-05-29T04:07:26.717Z,4.00
2019-05-29T04:08:25.179Z,4.00
2019-05-29T04:09:25.103Z,0.00
2019-05-29T04:10:25.031Z,4.00
2019-05-29T04:11:24.960Z,4.00
2019-05-29T04:12:24.889Z,4.00
2019-05-29T04:13:24.823Z,4.00
2019-05-29T04:14:24.748Z,4.00
2019-05-29T04:15:24.676Z,4.00
2019-05-29T04:16:24.617Z,8.00
2019-05-29T04:17:24.539Z,8.00
2019-05-29T04:18:24.461Z,8.00
2019-05-29T04:19:24.390Z,8.00
2019-05-29T04:20:24.324Z,12.00
2019-05-29T04:21:24.254Z,16.00
2019-05-29T04:22:24.185Z,16.00
2019-05-29T04:23:24.109Z,20.00
2019-05-29T04:24:24.039Z,24.00
2019-05-29T04:25:23.965Z,24.00
2019-05-29T04:26:23.902Z,28.00
2019-05-29T04:27:23.826Z,36.00
2019-05-29T04:28:23.757Z,40.00
2019-05-29T04:29:23.682Z,48.00
2019-05-29T04:30:23.634Z,48.00
2019-05-29T04:31:23.543Z,56.00
2019-05-29T04:32:23.484Z,64.00
2019-05-29T04:33:23.403Z,68.00
2019-05-29T04:34:23.332Z,76.00
2019-05-29T04:35:23.265Z,84.00
2019-05-29T04:36:23.186Z,92.00
2019-05-29T04:37:23.123Z,100.00
2019-05-29T04:38:23.056Z,104.00
2019-05-29T04:39:22.981Z,112.00
2019-05-29T04:40:22.903Z,120.00
2019-05-29T04:41:22.835Z,128.00
2019-05-29T04:42:22.768Z,144.00
2019-05-29T04:43:22.695Z,156.00
2019-05-29T04:44:22.627Z,172.00
2019-05-29T04:45:22.556Z,188.00
2019-05-29T04:46:22.475Z,212.00
2019-05-29T04:47:22.413Z,232.00
2019-05-29T04:48:22.341Z,252.00
2019-05-29T04:49:22.261Z,272.00
2019-05-29T04:50:22.195Z,300.00
2019-05-29T04:51:22.131Z,320.00
2019-05-29T04:52:22.056Z,344.00
2019-05-29T04:53:21.990Z,364.00
2019-05-29T04:54:21.909Z,396.00
2019-05-29T04:55:21.841Z,428.00
2019-05-29T04:56:21.801Z,444.00
2019-05-29T04:57:21.695Z,464.00
2019-05-29T04:58:21.626Z,472.00
2019-05-29T04:59:21.562Z,500.00
2019-05-29T05:00:21.511Z,528.00
2019-05-29T05:01:21.412Z,548.00
2019-05-29T05:02:21.379Z,584.00
2019-05-29T05:03:21.270Z,616.00
2019-05-29T05:04:21.203Z,644.00
2019-05-29T05:05:21.174Z,672.00
2019-05-29T05:06:21.088Z,688.00
2019-05-29T05:07:20.987Z,700.00
2019-05-29T05:08:20.921Z,720.00
2019-05-29T05:09:20.842Z,728.00
2019-05-29T05:10:20.786Z,748.00
2019-05-29T05:11:20.734Z,772.00
2019-05-29T05:12:20.626Z,796.00
2019-05-29T05:13:20.554Z,820.00
2019-05-29T05:14:20.494Z,852.00
2019-05-29T05:15:20.416Z,880.00
2019-05-29T05:16:20.461Z,916.00
2019-05-29T05:17:26.065Z,952.00
2019-05-29T05:18:20.204Z,984.00
2019-05-29T05:19:20.133Z,1020.00
2019-05-29T05:20:20.075Z,1060.00
2019-05-29T05:21:19.994Z,1100.00
2019-05-29T05:22:19.915Z,1136.00
2019-05-29T05:23:19.849Z,1184.00
2019-05-29T05:24:19.777Z,1232.00
2019-05-29T05:25:19.706Z,1280.00
2019-05-29T05:26:19.633Z,1328.00
2019-05-29T05:27:19.562Z,1384.00
2019-05-29T05:28:19.491Z,1432.00
2019-05-29T05:29:19.421Z,1484.00
2019-05-29T05:30:19.362Z,1536.00
2019-05-29T05:31:19.280Z,1592.00
2019-05-29T05:32:19.264Z,1644.00
2019-05-29T05:33:19.148Z,1696.00
2019-05-29T05:34:19.068Z,1748.00
2019-05-29T05:35:19.000Z,1796.00
2019-05-29T05:36:18.929Z,1856.00
2019-05-29T05:37:18.877Z,1908.00
2019-05-29T05:38:18.795Z,1960.00
2019-05-29T05:39:18.721Z,2004.00
2019-05-29T05:40:18.648Z,2060.00
2019-05-29T05:41:18.578Z,2112.00
2019-05-29T05:42:18.512Z,2164.00
2019-05-29T05:43:24.260Z,2216.00
2019-05-29T05:44:18.370Z,2264.00
2019-05-29T05:45:18.299Z,2312.00
2019-05-29T05:46:18.230Z,2364.00
2019-05-29T05:47:18.160Z,2460.00
2019-05-29T05:48:18.188Z,2564.00
2019-05-29T05:49:18.018Z,2788.00
2019-05-29T05:50:17.943Z,3008.00
2019-05-29T05:51:17.880Z,3120.00
2019-05-29T05:52:17.805Z,3300.00
2019-05-29T05:53:17.733Z,3348.00
2019-05-29T05:54:17.666Z,3760.00
2019-05-29T05:55:17.596Z,4152.00
2019-05-29T05:56:17.542Z,4672.00
2019-05-29T05:57:17.454Z,4796.00
2019-05-29T05:58:17.390Z,3740.00
2019-05-29T05:59:17.321Z,3144.00
2019-05-29T06:00:17.272Z,2980.00
2019-05-29T06:01:17.177Z,2976.00
2019-05-29T06:02:17.112Z,3004.00
2019-05-29T06:03:17.049Z,3044.00
2019-05-29T06:04:16.970Z,3092.00
2019-05-29T06:05:16.899Z,3120.00
2019-05-29T06:06:16.836Z,3156.00
2019-05-29T06:07:16.760Z,3204.00
2019-05-29T06:08:16.690Z,3228.00
2019-05-29T06:09:16.620Z,3264.00
2019-05-29T06:10:16.551Z,3288.00
2019-05-29T06:11:16.485Z,3328.00
2019-05-29T06:12:16.415Z,3360.00
2019-05-29T06:13:16.352Z,3408.00
2019-05-29T06:14:16.272Z,3428.00
2019-05-29T06:15:16.209Z,3456.00
2019-05-29T06:16:16.137Z,3504.00
2019-05-29T06:17:16.074Z,3564.00
2019-05-29T06:18:21.611Z,3604.00
2019-05-29T06:19:15.928Z,3680.00
2019-05-29T06:20:15.860Z,3824.00
2019-05-29T06:21:15.797Z,3896.00
2019-05-29T06:22:15.721Z,4076.00
2019-05-29T06:23:15.654Z,4412.00
2019-05-29T06:24:15.584Z,3896.00
2019-05-29T06:25:15.517Z,3776.00
2019-05-29T06:26:15.447Z,3780.00
2019-05-29T06:27:15.378Z,3828.00
2019-05-29T06:28:15.323Z,3824.00
2019-05-29T06:29:15.238Z,3860.00
2019-05-29T06:30:15.175Z,3880.00
2019-05-29T06:31:15.101Z,3904.00
2019-05-29T06:32:15.045Z,3912.00
2019-05-29T06:33:14.963Z,3960.00
2019-05-29T06:34:14.893Z,3956.00
2019-05-29T06:35:14.840Z,3996.00
2019-05-29T06:36:14.758Z,4004.00
2019-05-29T06:37:14.694Z,4032.00
2019-05-29T06:38:14.621Z,4044.00
2019-05-29T06:39:14.553Z,4088.00
2019-05-29T06:40:14.487Z,4096.00
2019-05-29T06:41:14.510Z,4132.00
2019-05-29T06:42:14.351Z,4144.00
2019-05-29T06:43:14.276Z,4168.00
2019-05-29T06:44:14.217Z,4232.00
2019-05-29T06:45:14.160Z,4292.00
2019-05-29T06:46:14.079Z,4356.00
2019-05-29T06:47:14.008Z,4420.00
2019-05-29T06:48:13.939Z,4620.00
2019-05-29T06:49:13.883Z,5968.00
2019-05-29T06:50:13.804Z,8224.00
2019-05-29T06:51:13.737Z,9836.00
2019-05-29T06:52:13.667Z,8652.00
2019-05-29T06:53:13.598Z,6332.00
2019-05-29T06:54:13.531Z,5744.00
2019-05-29T06:55:13.463Z,5024.00
2019-05-29T06:56:13.429Z,4416.00
2019-05-29T06:57:13.329Z,4440.00
2019-05-29T06:58:13.266Z,4452.00
2019-05-29T06:59:13.194Z,4468.00
2019-05-29T07:00:13.141Z,4492.00
2019-05-29T07:01:13.059Z,4500.00
2019-05-29T07:02:12.988Z,4516.00
2019-05-29T07:03:12.950Z,4520.00
2019-05-29T07:04:12.904Z,4532.00
2019-05-29T07:05:12.793Z,4532.00
2019-05-29T07:06:12.734Z,4556.00
2019-05-29T07:07:12.650Z,4544.00
2019-05-29T07:08:19.087Z,4560.00
2019-05-29T07:09:12.517Z,4568.00
2019-05-29T07:10:12.452Z,4592.00
2019-05-29T07:11:12.381Z,4604.00
2019-05-29T07:12:12.312Z,4572.00
2019-05-29T07:13:12.250Z,4620.00
2019-05-29T07:14:12.178Z,4588.00
2019-05-29T07:15:12.110Z,4644.00
2019-05-29T07:16:12.045Z,4632.00
2019-05-29T07:17:11.975Z,4672.00
2019-05-29T07:18:11.909Z,4668.00
2019-05-29T07:19:25.535Z,4664.00
2019-05-29T07:20:11.783Z,4656.00
2019-05-29T07:21:11.706Z,4688.00
2019-05-29T07:22:11.653Z,4664.00
2019-05-29T07:23:11.566Z,4720.00
2019-05-29T07:24:11.504Z,4724.00
2019-05-29T07:25:11.436Z,4724.00
2019-05-29T07:26:11.367Z,4720.00
2019-05-29T07:27:13.597Z,4756.00
2019-05-29T07:28:11.232Z,4736.00
2019-05-29T07:29:11.173Z,4744.00
2019-05-29T07:30:11.098Z,4756.00
2019-05-29T07:31:11.031Z,4752.00
2019-05-29T07:32:10.964Z,4748.00
2019-05-29T07:33:11.094Z,4788.00
2019-05-29T07:34:10.827Z,4816.00
2019-05-29T07:35:10.765Z,4776.00
2019-05-29T07:36:10.698Z,4764.00
2019-05-29T07:37:10.632Z,4740.00
2019-05-29T07:38:10.561Z,4804.00
2019-05-29T07:39:10.493Z,4828.00
2019-05-29T07:40:10.426Z,4796.00
2019-05-29T07:41:10.367Z,4828.00
2019-05-29T07:42:10.290Z,4804.00
2019-05-29T07:43:10.227Z,4820.00
2019-05-29T07:44:10.156Z,4820.00
2019-05-29T07:45:10.102Z,4828.00
2019-05-29T07:46:10.047Z,4892.00
2019-05-29T07:47:10.096Z,4940.00
2019-05-29T07:48:09.892Z,4748.00
2019-05-29T07:49:09.826Z,4940.00
2019-05-29T07:50:09.756Z,5004.00
2019-05-29T07:51:09.688Z,4968.00
2019-05-29T07:52:09.618Z,5000.00
2019-05-29T07:53:09.553Z,4992.00
2019-05-29T07:54:09.533Z,5112.00
2019-05-29T07:55:09.454Z,5008.00
2019-05-29T07:56:21.605Z,5112.00
2019-05-29T07:57:09.284Z,5328.00
2019-05-29T07:58:09.220Z,5320.00
2019-05-29T07:59:09.175Z,5228.00
2019-05-29T08:00:09.084Z,4832.00
2019-05-29T08:01:13.633Z,5116.00
2019-05-29T08:02:08.954Z,4972.00
2019-05-29T08:03:08.896Z,4976.00
2019-05-29T08:04:08.842Z,4984.00
2019-05-29T08:05:08.750Z,4972.00
2019-05-29T08:06:08.721Z,4932.00
2019-05-29T08:07:08.616Z,4872.00
2019-05-29T08:08:08.552Z,4820.00
2019-05-29T08:09:08.506Z,4824.00
2019-05-29T08:10:08.419Z,4864.00
2019-05-29T08:11:08.361Z,4860.00
2019-05-29T08:12:08.283Z,4844.00
2019-05-29T08:13:08.218Z,4852.00
2019-05-29T08:14:08.200Z,4876.00
2019-05-29T08:15:08.084Z,4860.00
2019-05-29T08:16:08.016Z,4844.00
2019-05-29T08:17:07.953Z,4820.00
2019-05-29T08:18:07.880Z,4844.00
2019-05-29T08:19:08.194Z,4896.00
2019-05-29T08:20:08.104Z,4860.00
2019-05-29T08:21:07.682Z,4868.00
2019-05-29T08:22:07.618Z,4904.00
2019-05-29T08:23:07.546Z,4936.00
2019-05-29T08:24:07.488Z,5084.00
2019-05-29T08:25:07.419Z,5044.00
2019-05-29T08:26:07.349Z,5220.00
2019-05-29T08:27:07.284Z,4540.00
2019-05-29T08:28:07.222Z,5312.00
2019-05-29T08:29:07.149Z,5252.00
2019-05-29T08:30:07.084Z,2300.00
2019-05-29T08:31:07.023Z,2796.00
2019-05-29T08:32:06.952Z,5376.00
2019-05-29T08:33:06.885Z,2780.00
2019-05-29T08:34:06.813Z,3060.00
2019-05-29T08:35:06.752Z,6020.00
2019-05-29T08:36:06.689Z,5604.00
2019-05-29T08:37:07.573Z,2656.00
2019-05-29T08:38:06.552Z,2260.00
2019-05-29T08:39:06.484Z,2092.00
2019-05-29T08:40:06.422Z,6080.00
2019-05-29T08:41:06.354Z,2408.00
2019-05-29T08:42:22.624Z,2304.00
2019-05-29T08:43:06.230Z,5812.00
2019-05-29T08:44:06.165Z,6536.00
2019-05-29T08:45:06.091Z,2984.00
2019-05-29T08:46:06.019Z,6064.00
2019-05-29T08:47:10.472Z,3660.00
2019-05-29T08:48:05.904Z,6240.00
2019-05-29T08:49:05.814Z,6248.00
2019-05-29T08:50:18.316Z,4900.00
2019-05-29T08:51:05.680Z,3992.00
2019-05-29T08:52:11.896Z,4056.00
2019-05-29T08:53:05.545Z,4280.00
2019-05-29T08:54:22.882Z,3136.00
2019-05-29T08:55:05.416Z,6488.00
2019-05-29T08:56:05.345Z,6572.00
2019-05-29T08:57:05.281Z,7160.00
2019-05-29T08:58:05.215Z,4896.00
2019-05-29T08:59:05.151Z,6044.00
2019-05-29T09:00:05.077Z,5788.00
2019-05-29T09:01:05.012Z,2744.00
2019-05-29T09:02:04.961Z,2080.00
2019-05-29T09:03:04.880Z,5832.00
2019-05-29T09:04:04.832Z,6156.00
2019-05-29T09:05:04.767Z,5968.00
2019-05-29T09:06:08.887Z,6312.00
2019-05-29T09:07:04.615Z,6624.00
2019-05-29T09:08:04.547Z,6052.00
2019-05-29T09:09:04.476Z,5736.00
2019-05-29T09:10:04.468Z,5488.00
2019-05-29T09:11:04.347Z,2008.00
2019-05-29T09:12:04.275Z,2676.00
2019-05-29T09:13:05.204Z,5020.00
2019-05-29T09:14:04.145Z,3432.00
2019-05-29T09:15:04.105Z,6008.00
2019-05-29T09:16:04.012Z,5276.00
2019-05-29T09:17:03.945Z,2252.00
2019-05-29T09:18:03.879Z,2860.00
2019-05-29T09:19:03.810Z,5936.00
2019-05-29T09:20:03.741Z,4848.00
2019-05-29T09:21:04.510Z,3384.00
2019-05-29T09:22:03.609Z,1884.00
2019-05-29T09:23:03.568Z,2404.00
2019-05-29T09:24:03.476Z,2332.00
2019-05-29T09:25:03.423Z,5424.00
2019-05-29T09:26:14.099Z,5184.00
2019-05-29T09:27:03.271Z,5084.00
2019-05-29T09:28:03.207Z,5236.00
2019-05-29T09:29:03.153Z,4888.00
2019-05-29T09:30:03.071Z,4644.00
2019-05-29T09:31:03.004Z,5200.00
2019-05-29T09:32:02.939Z,5688.00
2019-05-29T09:33:02.873Z,5348.00
2019-05-29T09:34:02.803Z,5104.00
2019-05-29T09:35:02.730Z,2648.00
2019-05-29T09:36:02.667Z,4952.00
2019-05-29T09:37:02.640Z,4920.00
2019-05-29T09:38:02.533Z,5008.00
2019-05-29T09:39:02.469Z,5832.00
2019-05-29T09:40:02.397Z,5556.00
2019-05-29T09:41:02.331Z,3252.00
2019-05-29T09:42:02.265Z,2132.00
2019-05-29T09:43:02.196Z,4844.00
2019-05-29T09:44:02.130Z,2060.00
2019-05-29T09:45:02.067Z,2264.00
2019-05-29T09:46:02.356Z,4712.00
2019-05-29T09:47:01.934Z,5076.00
2019-05-29T09:48:01.867Z,5224.00
2019-05-29T09:49:01.916Z,5936.00
2019-05-29T09:50:01.727Z,5576.00
2019-05-29T09:51:19.941Z,4996.00
2019-05-29T09:52:02.058Z,3780.00
2019-05-29T09:53:02.704Z,4728.00
2019-05-29T09:54:03.283Z,5164.00
2019-05-29T09:55:02.538Z,5136.00
2019-05-29T09:56:02.907Z,4528.00
2019-05-29T09:57:01.270Z,2148.00
2019-05-29T09:58:01.206Z,4732.00
2019-05-29T09:59:01.859Z,5052.00
2019-05-29T10:00:02.127Z,4732.00
2019-05-29T10:01:18.519Z,4464.00
2019-05-29T10:02:07.115Z,3360.00
2019-05-29T10:03:01.449Z,4236.00
2019-05-29T10:04:03.430Z,1744.00
2019-05-29T10:05:02.516Z,4128.00
2019-05-29T10:06:01.540Z,4032.00
2019-05-29T10:07:02.129Z,3980.00
2019-05-29T10:08:02.257Z,3968.00
2019-05-29T10:09:01.633Z,3932.00
2019-05-29T10:10:01.621Z,3956.00
2019-05-29T10:11:06.490Z,3944.00
2019-05-29T10:12:04.962Z,3888.00
2019-05-29T10:13:00.209Z,3832.00
2019-05-29T10:14:00.554Z,3780.00
2019-05-29T10:15:01.008Z,3740.00
2019-05-29T10:16:00.889Z,3740.00
2019-05-29T10:17:05.754Z,3736.00
2019-05-29T10:18:00.639Z,3684.00
2019-05-29T10:19:01.252Z,3616.00
2019-05-29T10:20:00.782Z,3728.00
2019-05-29T10:21:01.116Z,3644.00
2019-05-29T10:22:00.756Z,3620.00
2019-05-29T10:22:59.520Z,3624.00
2019-05-29T10:23:59.657Z,3608.00
2019-05-29T10:25:00.000Z,3596.00
2019-05-29T10:26:00.721Z,3568.00
2019-05-29T10:27:01.535Z,3528.00
2019-05-29T10:27:59.188Z,3512.00
2019-05-29T10:29:08.015Z,3496.00
2019-05-29T10:29:59.049Z,3408.00
2019-05-29T10:31:03.428Z,3416.00
2019-05-29T10:31:58.916Z,3452.00
2019-05-29T10:32:58.853Z,3436.00
2019-05-29T10:33:58.784Z,3428.00
2019-05-29T10:34:58.719Z,3400.00
2019-05-29T10:36:00.982Z,3376.00
2019-05-29T10:36:58.580Z,3352.00
2019-05-29T10:37:58.517Z,3336.00
2019-05-29T10:38:58.449Z,3332.00
2019-05-29T10:39:58.383Z,3308.00
2019-05-29T10:41:06.353Z,3300.00
2019-05-29T10:41:58.266Z,3280.00
2019-05-29T10:42:58.179Z,3256.00
2019-05-29T10:43:58.117Z,3244.00
2019-05-29T10:44:58.044Z,3228.00
2019-05-29T10:45:57.992Z,3208.00
2019-05-29T10:46:57.917Z,3200.00
2019-05-29T10:47:57.849Z,3180.00
2019-05-29T10:48:57.780Z,3148.00
2019-05-29T10:49:57.712Z,3136.00
2019-05-29T10:50:57.648Z,3120.00
2019-05-29T10:52:12.803Z,3104.00
2019-05-29T10:52:57.518Z,3080.00
2019-05-29T10:53:58.794Z,3068.00
2019-05-29T10:54:57.379Z,3056.00
2019-05-29T10:55:57.311Z,3032.00
2019-05-29T10:56:57.257Z,3020.00
2019-05-29T10:57:57.192Z,3008.00
2019-05-29T10:58:59.770Z,2992.00
2019-05-29T10:59:57.050Z,2976.00
2019-05-29T11:00:56.980Z,2956.00
2019-05-29T11:01:56.916Z,2932.00
2019-05-29T11:02:57.736Z,2916.00
2019-05-29T11:03:56.784Z,2904.00
2019-05-29T11:04:59.267Z,2884.00
2019-05-29T11:05:56.681Z,2872.00
2019-05-29T11:06:57.019Z,2852.00
2019-05-29T11:07:56.513Z,2832.00
2019-05-29T11:08:56.448Z,2812.00
2019-05-29T11:09:56.379Z,2792.00
2019-05-29T11:10:56.426Z,2784.00
2019-05-29T11:11:57.702Z,2768.00
2019-05-29T11:12:56.771Z,2744.00
2019-05-29T11:13:57.160Z,2724.00
2019-05-29T11:14:56.910Z,2704.00
2019-05-29T11:15:56.906Z,2684.00
2019-05-29T11:16:57.430Z,2668.00
2019-05-29T11:17:55.847Z,2652.00
2019-05-29T11:18:55.783Z,2632.00
2019-05-29T11:19:55.712Z,2616.00
2019-05-29T11:20:55.644Z,2608.00
2019-05-29T11:22:01.024Z,2592.00
2019-05-29T11:22:55.709Z,2576.00
2019-05-29T11:23:56.005Z,2564.00
2019-05-29T11:24:56.598Z,2556.00
2019-05-29T11:25:56.004Z,2556.00
2019-05-29T11:26:56.577Z,2540.00
2019-05-29T11:27:56.561Z,2532.00
2019-05-29T11:28:56.498Z,2520.00
2019-05-29T11:29:55.230Z,2504.00
2019-05-29T11:30:55.606Z,2500.00
2019-05-29T11:31:55.112Z,2488.00
2019-05-29T11:32:56.609Z,2468.00
2019-05-29T11:33:55.034Z,2456.00
2019-05-29T11:34:55.543Z,2452.00
2019-05-29T11:36:00.846Z,2432.00
2019-05-29T11:36:54.573Z,2428.00
2019-05-29T11:37:54.706Z,2420.00
2019-05-29T11:38:54.679Z,2416.00
2019-05-29T11:39:54.897Z,2392.00
2019-05-29T11:41:22.349Z,2384.00
2019-05-29T11:41:54.757Z,2380.00
2019-05-29T11:42:54.814Z,2364.00
2019-05-29T11:43:54.883Z,2356.00
2019-05-29T11:44:55.244Z,2336.00
2019-05-29T11:45:55.123Z,2336.00
2019-05-29T11:46:54.267Z,2328.00
2019-05-29T11:47:56.737Z,2324.00
2019-05-29T11:48:55.130Z,2308.00
2019-05-29T11:49:53.700Z,2288.00
2019-05-29T11:50:54.160Z,2280.00
2019-05-29T11:51:55.332Z,2272.00
2019-05-29T11:52:54.424Z,2260.00
2019-05-29T11:53:53.557Z,2240.00
2019-05-29T11:54:56.585Z,2224.00
2019-05-29T11:55:53.967Z,2212.00
2019-05-29T11:56:54.054Z,2204.00
2019-05-29T11:57:53.794Z,2196.00
2019-05-29T11:58:53.094Z,2192.00
2019-05-29T11:59:53.869Z,2180.00
2019-05-29T12:00:53.005Z,2160.00
2019-05-29T12:01:54.409Z,2160.00
2019-05-29T12:02:53.949Z,2148.00
2019-05-29T12:04:15.543Z,2140.00
2019-05-29T12:04:53.097Z,2128.00
2019-05-29T12:05:53.500Z,2108.00
2019-05-29T12:06:53.193Z,2100.00
2019-05-29T12:07:53.448Z,2088.00
2019-05-29T12:08:53.614Z,2076.00
2019-05-29T12:09:53.311Z,2072.00
2019-05-29T12:10:53.196Z,2060.00
2019-05-29T12:11:53.895Z,2044.00
2019-05-29T12:12:53.273Z,2040.00
2019-05-29T12:13:52.146Z,2024.00
2019-05-29T12:15:00.510Z,2028.00
2019-05-29T12:15:52.000Z,2016.00
2019-05-29T12:16:51.894Z,2000.00
2019-05-29T12:18:00.098Z,1988.00
2019-05-29T12:18:51.760Z,1984.00
2019-05-29T12:19:51.911Z,1968.00
2019-05-29T12:20:52.082Z,1960.00
2019-05-29T12:21:52.280Z,1948.00
2019-05-29T12:23:16.707Z,1944.00
2019-05-29T12:23:51.981Z,1928.00
2019-05-29T12:24:52.512Z,1924.00
2019-05-29T12:26:10.301Z,1920.00
2019-05-29T12:26:52.308Z,1900.00
2019-05-29T12:27:52.616Z,1896.00
2019-05-29T12:28:51.083Z,1888.00
2019-05-29T12:29:51.019Z,1876.00
2019-05-29T12:30:50.949Z,1868.00